createdAt,value
2023-04-30T00:01:06.985Z,9.30
2023-04-30T00:03:39.314Z,9.10
2023-04-30T00:06:11.548Z,12.30
2023-04-30T00:08:47.190Z,11.50
2023-04-30T00:11:19.483Z,11.90
2023-04-30T00:13:52.030Z,13.90
2023-04-30T00:16:24.377Z,13.30
2023-04-30T00:18:56.625Z,10.50
2023-04-30T00:21:29.264Z,12.20
2023-04-30T00:24:01.671Z,11.10
2023-04-30T00:26:33.845Z,11.20
2023-04-30T00:29:07.059Z,13.00
2023-04-30T00:31:39.746Z,12.40
2023-04-30T00:34:12.671Z,12.80
2023-04-30T00:36:45.244Z,12.60
2023-04-30T00:39:18.655Z,16.60
2023-04-30T00:41:51.308Z,14.00
2023-04-30T00:44:23.516Z,13.90
2023-04-30T00:46:56.004Z,20.00
2023-04-30T00:49:31.035Z,14.30
2023-04-30T00:52:03.712Z,15.90
2023-04-30T00:54:36.485Z,11.70
2023-04-30T00:57:13.438Z,11.30
2023-04-30T00:59:46.951Z,12.30
2023-04-30T01:02:20.148Z,10.40
2023-04-30T01:04:54.111Z,11.50
2023-04-30T01:07:28.612Z,12.50
2023-04-30T01:10:01.320Z,10.70
2023-04-30T01:12:39.093Z,11.30
2023-04-30T01:15:20.058Z,10.50
2023-04-30T01:17:58.666Z,12.20
2023-04-30T01:20:33.571Z,12.20
2023-04-30T01:23:15.647Z,12.50
2023-04-30T01:26:02.519Z,13.10
2023-04-30T01:28:37.041Z,14.80
2023-04-30T01:31:17.775Z,15.70
2023-04-30T01:33:50.092Z,16.40
2023-04-30T01:36:38.234Z,16.80
2023-04-30T01:39:28.236Z,17.30
2023-04-30T01:42:09.231Z,21.30
2023-04-30T01:44:56.211Z,19.90
2023-04-30T01:47:36.224Z,21.30
2023-04-30T01:50:18.909Z,21.60
2023-04-30T01:52:59.046Z,22.30
2023-04-30T01:55:39.300Z,22.10
2023-04-30T01:58:14.163Z,23.30
2023-04-30T02:00:46.601Z,24.30
2023-04-30T02:03:19.077Z,22.50
2023-04-30T02:05:51.901Z,24.30
2023-04-30T02:08:24.087Z,21.80
2023-04-30T02:10:59.083Z,21.60
2023-04-30T02:13:31.228Z,25.00
2023-04-30T02:16:04.449Z,23.20
2023-04-30T02:18:39.407Z,22.60
2023-04-30T02:21:14.478Z,23.00
2023-04-30T02:23:47.135Z,19.50
2023-04-30T02:26:22.413Z,18.50
2023-04-30T02:28:56.301Z,20.60
2023-04-30T02:31:28.860Z,18.80
2023-04-30T02:34:01.082Z,20.00
2023-04-30T02:36:36.756Z,26.80
2023-04-30T02:39:10.976Z,34.00
2023-04-30T02:41:46.147Z,22.50
2023-04-30T02:44:18.435Z,28.50
2023-04-30T02:46:50.715Z,20.60
2023-04-30T02:49:23.315Z,22.50
2023-04-30T02:51:57.176Z,21.50
2023-04-30T02:54:30.381Z,20.20
2023-04-30T02:57:02.710Z,22.40
2023-04-30T02:59:35.018Z,19.60
2023-04-30T03:02:07.267Z,21.20
2023-04-30T03:04:39.414Z,22.90
2023-04-30T03:07:11.719Z,19.80
2023-04-30T03:09:44.841Z,21.30
2023-04-30T03:12:17.352Z,20.40
2023-04-30T03:14:49.865Z,20.50
2023-04-30T03:17:23.708Z,21.20
2023-04-30T03:19:58.379Z,21.50
2023-04-30T03:22:31.462Z,22.70
2023-04-30T03:25:03.805Z,20.70
2023-04-30T03:27:36.074Z,21.50
2023-04-30T03:30:09.899Z,21.10
2023-04-30T03:32:42.129Z,23.20
2023-04-30T03:35:14.353Z,19.90
2023-04-30T03:37:46.528Z,22.20
2023-04-30T03:40:18.877Z,26.10
2023-04-30T03:42:51.501Z,31.40
2023-04-30T03:45:27.088Z,26.00
2023-04-30T03:48:02.800Z,20.80
2023-04-30T03:50:38.478Z,22.90
2023-04-30T03:53:13.871Z,29.60
2023-04-30T03:55:47.388Z,24.20
2023-04-30T03:58:22.836Z,25.40
2023-04-30T04:00:56.469Z,21.90
2023-04-30T04:03:32.410Z,21.80
2023-04-30T04:06:05.555Z,21.60
2023-04-30T04:08:43.454Z,31.10
2023-04-30T04:11:21.411Z,39.50
2023-04-30T04:13:54.329Z,36.50
2023-04-30T04:16:28.389Z,25.90
2023-04-30T04:19:01.110Z,24.80
2023-04-30T04:21:34.099Z,20.40
2023-04-30T04:24:08.867Z,19.50
2023-04-30T04:26:41.453Z,20.10
2023-04-30T04:29:14.511Z,22.80
2023-04-30T04:31:49.281Z,23.30
2023-04-30T04:34:21.961Z,31.10
2023-04-30T04:36:54.118Z,24.20
2023-04-30T04:39:29.110Z,31.00
2023-04-30T04:42:01.397Z,20.30
2023-04-30T04:44:33.681Z,24.70
2023-04-30T04:47:06.267Z,19.30
2023-04-30T04:49:38.721Z,22.20
2023-04-30T04:52:11.594Z,19.00
2023-04-30T04:54:43.772Z,17.80
2023-04-30T04:57:16.066Z,20.50
2023-04-30T04:59:51.188Z,17.60
2023-04-30T05:02:24.212Z,24.30
2023-04-30T05:04:57.074Z,20.60
2023-04-30T05:07:30.054Z,26.40
2023-04-30T05:10:02.351Z,19.40
2023-04-30T05:12:34.908Z,20.40
2023-04-30T05:15:08.046Z,21.20
2023-04-30T05:17:40.345Z,20.80
2023-04-30T05:20:14.690Z,20.00
2023-04-30T05:22:46.918Z,26.00
2023-04-30T05:25:19.928Z,24.50
2023-04-30T05:27:52.215Z,20.20
2023-04-30T05:30:24.705Z,26.30
2023-04-30T05:32:59.339Z,17.90
2023-04-30T05:35:31.818Z,15.70
2023-04-30T05:38:04.252Z,17.10
2023-04-30T05:40:36.440Z,16.80
2023-04-30T05:43:11.051Z,15.60
2023-04-30T05:45:43.698Z,14.90
2023-04-30T05:48:16.136Z,14.60
2023-04-30T05:50:48.637Z,14.40
2023-04-30T05:53:20.829Z,15.40
2023-04-30T05:55:53.514Z,14.40
2023-04-30T05:58:26.418Z,12.90
2023-04-30T06:00:59.290Z,15.70
2023-04-30T06:03:31.368Z,13.30
2023-04-30T06:06:03.561Z,13.70
2023-04-30T06:08:35.890Z,12.60
2023-04-30T06:11:08.755Z,12.00
2023-04-30T06:13:41.628Z,11.90
2023-04-30T06:16:13.854Z,12.60
2023-04-30T06:18:46.164Z,11.20
2023-04-30T06:21:18.419Z,10.50
2023-04-30T06:23:50.569Z,10.40
2023-04-30T06:26:23.143Z,9.60
2023-04-30T06:32:04.927Z,9.00
2023-04-30T06:34:39.955Z,12.50
2023-04-30T06:37:12.217Z,11.40
2023-04-30T06:39:44.292Z,11.70
2023-04-30T06:42:16.979Z,9.70
2023-04-30T06:44:49.194Z,10.70
2023-04-30T06:47:21.304Z,9.20
2023-04-30T06:49:53.690Z,10.30
2023-04-30T06:52:26.104Z,8.60
2023-04-30T06:54:58.421Z,8.00
2023-04-30T06:57:40.046Z,11.60
2023-04-30T07:00:16.980Z,10.70
2023-04-30T07:02:52.952Z,14.20
2023-04-30T07:05:28.139Z,8.70
2023-04-30T07:08:03.512Z,9.80
2023-04-30T07:10:39.112Z,11.10
2023-04-30T07:13:11.654Z,9.30
2023-04-30T07:15:44.058Z,12.90
2023-04-30T07:18:19.875Z,10.00
2023-04-30T07:20:51.958Z,11.60
2023-04-30T07:23:24.303Z,17.20
2023-04-30T07:25:56.590Z,12.30
2023-04-30T07:28:32.531Z,31.60
2023-04-30T07:31:16.852Z,33.20
2023-04-30T07:33:50.881Z,21.70
2023-04-30T07:36:23.000Z,17.10
2023-04-30T07:38:55.142Z,20.30
2023-04-30T07:41:30.273Z,18.90
2023-04-30T07:44:04.772Z,18.60
2023-04-30T07:46:37.795Z,9.40
2023-04-30T07:49:10.081Z,7.20
2023-04-30T07:51:43.114Z,8.70
2023-04-30T07:54:15.349Z,6.90
2023-04-30T07:56:48.975Z,9.00
2023-04-30T07:59:21.642Z,9.50
2023-04-30T08:01:53.998Z,8.30
2023-04-30T08:04:28.758Z,7.60
2023-04-30T08:07:02.023Z,8.90
2023-04-30T08:09:36.490Z,7.30
2023-04-30T08:12:09.765Z,7.10
2023-04-30T08:14:42.070Z,7.70
2023-04-30T08:17:14.168Z,10.00
2023-04-30T08:19:51.543Z,8.20
2023-04-30T08:22:26.155Z,7.40
2023-04-30T08:24:58.286Z,7.10
2023-04-30T08:27:32.002Z,6.70
2023-04-30T08:30:04.420Z,6.50
2023-04-30T08:32:38.271Z,6.50
2023-04-30T08:35:12.153Z,6.80
2023-04-30T08:37:44.282Z,7.50
2023-04-30T08:40:16.824Z,6.60
2023-04-30T08:42:52.931Z,6.30
2023-04-30T08:45:25.997Z,6.70
2023-04-30T08:48:01.156Z,5.80
2023-04-30T08:50:38.085Z,5.20
2023-04-30T08:53:21.627Z,7.60
2023-04-30T08:55:54.156Z,5.00
2023-04-30T08:58:26.475Z,5.70
2023-04-30T09:01:00.872Z,11.90
2023-04-30T09:03:35.556Z,12.50
2023-04-30T09:06:08.171Z,8.80
2023-04-30T09:08:48.189Z,7.00
2023-04-30T09:11:29.187Z,5.80
2023-04-30T09:14:03.491Z,6.70
2023-04-30T09:16:52.802Z,7.20
2023-04-30T09:19:30.614Z,5.90
2023-04-30T09:22:22.946Z,6.50
2023-04-30T09:24:55.144Z,6.00
2023-04-30T09:27:37.033Z,8.70
2023-04-30T09:30:34.139Z,6.20
2023-04-30T09:33:09.917Z,8.10
2023-04-30T09:35:43.704Z,5.70
2023-04-30T09:38:31.205Z,4.60
2023-04-30T09:41:03.817Z,5.70
2023-04-30T09:43:46.323Z,6.70
2023-04-30T09:46:19.855Z,8.10
2023-04-30T09:48:59.865Z,6.20
2023-04-30T09:51:32.670Z,5.50
2023-04-30T09:54:09.221Z,5.10
2023-04-30T09:56:44.943Z,4.70
2023-04-30T09:59:20.358Z,4.30
2023-04-30T10:01:54.559Z,5.20
2023-04-30T10:04:28.515Z,6.10
2023-04-30T10:07:09.303Z,4.40
2023-04-30T10:09:46.398Z,4.30
2023-04-30T10:12:22.314Z,5.00
2023-04-30T10:15:07.858Z,5.10
2023-04-30T10:17:44.287Z,9.30
2023-04-30T10:20:18.795Z,6.50
2023-04-30T10:22:55.369Z,5.60
2023-04-30T10:25:28.464Z,4.70
2023-04-30T10:28:03.950Z,5.20
2023-04-30T10:30:39.535Z,5.00
2023-04-30T10:33:24.721Z,4.80
2023-04-30T10:36:01.780Z,4.20
2023-04-30T10:38:39.442Z,9.60
2023-04-30T10:41:11.980Z,8.90
2023-04-30T10:43:44.397Z,6.10
2023-04-30T10:46:24.978Z,5.00
2023-04-30T10:48:57.680Z,4.80
2023-04-30T10:51:49.645Z,4.20
2023-04-30T10:54:28.815Z,4.20
2023-04-30T10:57:17.697Z,4.90
2023-04-30T10:59:56.907Z,4.70
2023-04-30T11:02:42.695Z,5.90
2023-04-30T11:05:20.281Z,6.20
2023-04-30T11:07:59.272Z,5.00
2023-04-30T11:10:35.756Z,4.80
2023-04-30T11:13:12.960Z,5.10
2023-04-30T11:18:21.844Z,12.50
2023-04-30T11:20:58.595Z,5.30
2023-04-30T11:23:39.315Z,4.40
2023-04-30T11:26:21.291Z,8.30
2023-04-30T11:28:54.585Z,5.60
2023-04-30T11:31:35.943Z,6.10
2023-04-30T11:34:08.924Z,8.30
2023-04-30T11:36:46.329Z,7.30
2023-04-30T11:39:21.229Z,7.50
2023-04-30T11:41:53.430Z,21.10
2023-04-30T11:44:30.206Z,11.80
2023-04-30T11:47:02.903Z,11.30
2023-04-30T11:49:38.398Z,5.80
2023-04-30T11:52:14.246Z,4.00
2023-04-30T11:55:01.728Z,6.00
2023-04-30T11:57:42.938Z,12.30
2023-04-30T12:00:19.972Z,7.40
2023-04-30T12:02:52.913Z,6.00
2023-04-30T12:05:28.746Z,4.00
2023-04-30T12:08:04.451Z,4.30
2023-04-30T12:10:37.231Z,4.20
2023-04-30T12:13:09.428Z,3.00
2023-04-30T12:15:44.127Z,3.30
2023-04-30T12:18:16.645Z,3.50
2023-04-30T12:20:48.982Z,3.40
2023-04-30T12:23:23.851Z,3.30
2023-04-30T12:25:55.973Z,3.60
2023-04-30T12:28:29.119Z,3.50
2023-04-30T12:31:02.459Z,3.70
2023-04-30T12:33:35.167Z,2.80
2023-04-30T12:36:11.157Z,3.20
2023-04-30T12:38:47.244Z,3.20
2023-04-30T12:41:22.989Z,3.30
2023-04-30T12:44:14.583Z,3.60
2023-04-30T12:46:48.199Z,3.50
2023-04-30T12:49:29.037Z,3.30
2023-04-30T12:54:36.224Z,4.30
2023-04-30T12:57:13.429Z,6.10
2023-04-30T13:00:01.388Z,6.20
2023-04-30T13:02:33.711Z,5.10
2023-04-30T13:05:06.385Z,7.40
2023-04-30T13:07:41.803Z,4.90
2023-04-30T13:10:14.546Z,6.40
2023-04-30T13:12:46.585Z,5.80
2023-04-30T13:15:18.934Z,5.90
2023-04-30T13:17:51.572Z,3.50
2023-04-30T13:20:24.958Z,2.90
2023-04-30T13:22:57.646Z,4.30
2023-04-30T13:25:29.784Z,3.80
2023-04-30T13:28:02.073Z,5.10
2023-04-30T13:30:35.028Z,5.40
2023-04-30T13:33:07.395Z,4.40
2023-04-30T13:35:39.583Z,9.10
2023-04-30T13:38:12.076Z,4.30
2023-04-30T13:40:44.177Z,4.50
2023-04-30T13:43:16.291Z,8.20
2023-04-30T13:45:48.460Z,6.80
2023-04-30T13:48:20.696Z,5.80
2023-04-30T13:50:53.022Z,8.10
2023-04-30T13:53:25.202Z,11.00
2023-04-30T13:55:59.469Z,6.80
2023-04-30T13:58:31.625Z,5.90
2023-04-30T14:01:06.634Z,11.10
2023-04-30T14:03:42.393Z,4.30
2023-04-30T14:06:17.461Z,4.30
2023-04-30T14:08:49.617Z,4.80
2023-04-30T14:11:21.974Z,6.50
2023-04-30T14:13:54.631Z,5.90
2023-04-30T14:16:30.531Z,4.20
2023-04-30T14:19:03.282Z,5.40
2023-04-30T14:21:36.083Z,4.50
2023-04-30T14:24:12.776Z,4.10
2023-04-30T14:26:45.632Z,9.10
2023-04-30T14:29:20.457Z,4.30
2023-04-30T14:31:54.286Z,4.40
2023-04-30T14:34:27.835Z,2.80
2023-04-30T14:37:02.049Z,7.70
2023-04-30T14:39:34.557Z,4.80
2023-04-30T14:42:06.671Z,4.70
2023-04-30T14:44:41.553Z,5.20
2023-04-30T14:47:14.650Z,9.40
2023-04-30T14:49:46.727Z,4.30
2023-04-30T14:52:18.778Z,4.50
2023-04-30T14:54:50.980Z,5.70
2023-04-30T14:57:23.741Z,3.50
2023-04-30T14:59:57.913Z,4.70
2023-04-30T15:02:30.330Z,3.10
2023-04-30T15:05:02.786Z,12.30
2023-04-30T15:07:35.075Z,6.50
2023-04-30T15:10:09.605Z,4.90
2023-04-30T15:12:44.985Z,7.60
2023-04-30T15:15:21.371Z,5.50
2023-04-30T15:17:53.589Z,4.70
2023-04-30T15:20:27.545Z,7.00
2023-04-30T15:23:00.183Z,4.40
2023-04-30T15:25:33.147Z,10.90
2023-04-30T15:28:05.389Z,5.60
2023-04-30T15:30:39.786Z,4.30
2023-04-30T15:33:12.603Z,5.90
2023-04-30T15:35:45.026Z,4.90
2023-04-30T15:38:17.237Z,5.70
2023-04-30T15:40:49.504Z,4.20
2023-04-30T15:43:23.278Z,3.90
2023-04-30T15:45:55.522Z,6.60
2023-04-30T15:48:27.825Z,4.70
2023-04-30T15:51:00.186Z,4.00
2023-04-30T15:53:32.418Z,3.60
2023-04-30T15:56:05.194Z,7.60
2023-04-30T15:58:38.423Z,5.00
2023-04-30T16:01:10.778Z,7.60
2023-04-30T16:03:45.444Z,5.20
2023-04-30T16:06:20.996Z,5.00
2023-04-30T16:08:55.984Z,5.30
2023-04-30T16:11:28.335Z,4.70
2023-04-30T16:14:00.579Z,5.00
2023-04-30T16:16:40.429Z,7.30
2023-04-30T16:19:14.042Z,6.40
2023-04-30T16:21:46.345Z,5.10
2023-04-30T16:24:18.575Z,5.40
2023-04-30T16:26:51.035Z,4.80
2023-04-30T16:29:23.196Z,4.70
2023-04-30T16:31:56.421Z,3.70
2023-04-30T16:34:28.755Z,3.90
2023-04-30T16:37:00.886Z,5.20
2023-04-30T16:39:33.222Z,6.60
2023-04-30T16:42:05.955Z,5.80
2023-04-30T16:44:38.080Z,5.50
2023-04-30T16:47:10.222Z,15.20
2023-04-30T16:49:42.427Z,13.30
2023-04-30T16:52:14.726Z,6.90
2023-04-30T16:54:46.970Z,6.90
2023-04-30T16:57:19.069Z,7.50
2023-04-30T16:59:51.551Z,11.90
2023-04-30T17:02:24.529Z,5.70
2023-04-30T17:04:57.688Z,5.00
2023-04-30T17:07:29.807Z,6.10
2023-04-30T17:10:01.911Z,9.30
2023-04-30T17:12:34.053Z,4.20
2023-04-30T17:15:07.978Z,4.30
2023-04-30T17:17:40.270Z,4.30
2023-04-30T17:20:13.657Z,4.30
2023-04-30T17:22:45.949Z,14.80
2023-04-30T17:25:18.253Z,7.70
2023-04-30T17:27:50.715Z,7.10
2023-04-30T17:30:22.897Z,7.70
2023-04-30T17:32:55.574Z,12.60
2023-04-30T17:35:28.007Z,11.90
2023-04-30T17:38:00.589Z,7.90
2023-04-30T17:40:33.225Z,10.10
2023-04-30T17:43:05.381Z,8.00
2023-04-30T17:45:38.256Z,6.60
2023-04-30T17:48:10.462Z,9.20
2023-04-30T17:50:42.658Z,6.90
2023-04-30T17:53:14.919Z,4.90
2023-04-30T17:55:47.467Z,5.70
2023-04-30T17:58:19.653Z,5.40
2023-04-30T18:00:51.798Z,9.30
2023-04-30T18:03:24.036Z,7.00
2023-04-30T18:05:56.308Z,8.20
2023-04-30T18:08:28.783Z,9.20
2023-04-30T18:11:03.052Z,7.30
2023-04-30T18:13:35.287Z,4.90
2023-04-30T18:16:08.469Z,4.40
2023-04-30T18:18:41.152Z,5.70
2023-04-30T18:21:14.712Z,4.90
2023-04-30T18:23:48.112Z,6.10
2023-04-30T18:26:22.293Z,8.90
2023-04-30T18:28:54.484Z,17.50
2023-04-30T18:31:26.676Z,13.50
2023-04-30T18:34:02.051Z,10.20
2023-04-30T18:36:34.409Z,9.90
2023-04-30T18:39:07.166Z,9.70
2023-04-30T18:41:40.057Z,9.00
2023-04-30T18:44:13.692Z,8.20
2023-04-30T18:46:45.814Z,7.70
2023-04-30T18:49:18.010Z,8.90
2023-04-30T18:51:50.416Z,11.40
2023-04-30T18:54:22.958Z,11.60
2023-04-30T18:56:55.403Z,9.80
2023-04-30T18:59:28.907Z,12.30
2023-04-30T19:02:01.486Z,14.20
2023-04-30T19:04:33.890Z,11.40
2023-04-30T19:07:06.132Z,11.50
2023-04-30T19:09:38.761Z,14.60
2023-04-30T19:12:11.092Z,14.20
2023-04-30T19:14:44.464Z,13.80
2023-04-30T19:17:17.877Z,14.30
2023-04-30T19:19:51.276Z,13.30
2023-04-30T19:22:23.833Z,13.00
2023-04-30T19:24:56.054Z,11.40
2023-04-30T19:27:28.902Z,10.10
2023-04-30T19:30:00.987Z,13.90
2023-04-30T19:32:39.693Z,13.10
2023-04-30T19:35:15.205Z,18.50
2023-04-30T19:37:47.418Z,26.70
2023-04-30T19:40:20.033Z,32.50
2023-04-30T19:42:54.201Z,31.80
2023-04-30T19:45:27.032Z,31.50
2023-04-30T19:48:01.465Z,33.20
2023-04-30T19:50:33.685Z,31.90
2023-04-30T19:53:05.768Z,29.50
2023-04-30T19:55:38.649Z,30.20
2023-04-30T19:58:10.980Z,28.20
2023-04-30T20:00:46.187Z,27.30
2023-04-30T20:03:21.166Z,25.60
2023-04-30T20:05:56.414Z,25.30
2023-04-30T20:08:31.395Z,25.10
2023-04-30T20:11:03.963Z,26.60
2023-04-30T20:13:36.518Z,24.60
2023-04-30T20:16:12.421Z,23.80
2023-04-30T20:18:44.721Z,23.00
2023-04-30T20:21:19.282Z,23.50
2023-04-30T20:23:52.745Z,20.80
2023-04-30T20:26:25.902Z,20.40
2023-04-30T20:28:58.077Z,18.60
2023-04-30T20:31:32.928Z,16.70
2023-04-30T20:34:05.381Z,17.40
2023-04-30T20:36:38.156Z,18.40
2023-04-30T20:39:10.347Z,18.80
2023-04-30T20:41:43.688Z,19.10
2023-04-30T20:44:15.916Z,19.70
2023-04-30T20:46:48.392Z,22.40
2023-04-30T20:49:20.564Z,26.60
2023-04-30T20:51:52.667Z,23.40
2023-04-30T20:54:24.920Z,18.90
2023-04-30T20:56:57.095Z,17.20
2023-04-30T20:59:29.721Z,15.40
2023-04-30T21:02:01.973Z,15.10
2023-04-30T21:04:34.528Z,14.90
2023-04-30T21:07:07.546Z,14.30
2023-04-30T21:09:39.957Z,13.60
2023-04-30T21:12:14.458Z,12.70
2023-04-30T21:14:49.636Z,12.60
2023-04-30T21:17:21.900Z,12.80
2023-04-30T21:19:55.357Z,14.10
2023-04-30T21:22:27.975Z,12.00
2023-04-30T21:25:00.137Z,11.60
2023-04-30T21:27:33.544Z,11.50
2023-04-30T21:30:06.125Z,13.00
2023-04-30T21:32:38.397Z,12.20
2023-04-30T21:35:14.233Z,12.70
2023-04-30T21:37:47.056Z,12.30
2023-04-30T21:40:19.624Z,12.30
2023-04-30T21:42:52.720Z,11.30
2023-04-30T21:45:25.059Z,11.60
2023-04-30T21:47:59.425Z,13.80
2023-04-30T21:50:35.025Z,12.20
2023-04-30T21:53:07.573Z,11.20
2023-04-30T21:55:39.706Z,11.20
2023-04-30T21:58:14.795Z,12.00
2023-04-30T22:00:47.501Z,11.20
2023-04-30T22:03:19.713Z,10.20
2023-04-30T22:05:54.819Z,11.40
2023-04-30T22:08:27.324Z,10.50
2023-04-30T22:11:04.741Z,10.60
2023-04-30T22:13:37.555Z,10.60
2023-04-30T22:16:10.404Z,11.40
2023-04-30T22:18:42.541Z,10.40
2023-04-30T22:21:14.739Z,10.20
2023-04-30T22:23:47.553Z,10.50
2023-04-30T22:26:19.691Z,10.80
2023-04-30T22:28:51.869Z,11.70
2023-04-30T22:31:23.984Z,10.50
2023-04-30T22:33:56.212Z,11.10
2023-04-30T22:36:28.420Z,10.20
2023-04-30T22:39:00.535Z,10.30
2023-04-30T22:41:34.305Z,9.90
2023-04-30T22:44:07.223Z,10.80
2023-04-30T22:46:40.631Z,10.40
2023-04-30T22:49:23.755Z,11.50
2023-04-30T22:52:04.494Z,11.10
2023-04-30T22:54:36.765Z,10.80
2023-04-30T22:57:09.176Z,9.80
2023-04-30T22:59:41.418Z,10.30
2023-04-30T23:02:13.598Z,9.40
2023-04-30T23:04:45.913Z,9.40
2023-04-30T23:07:18.276Z,9.30
2023-04-30T23:09:51.156Z,9.50
2023-04-30T23:12:23.648Z,10.50
2023-04-30T23:14:55.833Z,11.60
2023-04-30T23:17:28.065Z,10.60
2023-04-30T23:20:00.388Z,10.60
2023-04-30T23:22:32.949Z,10.20
2023-04-30T23:25:05.270Z,9.90
2023-04-30T23:27:37.616Z,9.50
2023-04-30T23:30:11.931Z,12.20
2023-04-30T23:32:45.485Z,11.50
2023-04-30T23:35:17.868Z,10.80
2023-04-30T23:37:50.012Z,10.30
2023-04-30T23:40:22.219Z,11.40
2023-04-30T23:42:56.583Z,10.30
2023-04-30T23:45:29.867Z,11.20
2023-04-30T23:48:02.041Z,12.80
2023-04-30T23:50:34.466Z,12.10
2023-04-30T23:53:07.863Z,10.00
2023-04-30T23:55:43.505Z,10.50
2023-04-30T23:58:15.610Z,11.00
